createdAt,value
2023-04-13T00:02:29.254Z,98900.53
2023-04-13T00:07:34.084Z,98902.81
2023-04-13T00:12:41.068Z,98906.69
2023-04-13T00:17:45.696Z,98913.19
2023-04-13T00:22:49.700Z,98918.22
2023-04-13T00:27:54.187Z,98907.88
2023-04-13T00:32:57.466Z,98922.38
2023-04-13T00:38:00.954Z,98936.00
2023-04-13T00:43:05.802Z,98963.03
2023-04-13T00:48:14.191Z,98936.47
2023-04-13T00:53:18.673Z,98945.56
2023-04-13T00:58:23.555Z,98952.19
2023-04-13T01:03:27.890Z,98963.59
2023-04-13T01:08:38.149Z,98961.94
2023-04-13T01:13:48.821Z,98967.69
2023-04-13T01:18:55.908Z,98979.44
2023-04-13T01:24:18.207Z,98963.22
2023-04-13T01:29:24.586Z,98978.38
2023-04-13T01:34:29.147Z,98966.78
2023-04-13T01:39:33.369Z,98973.75
2023-04-13T01:44:39.123Z,98980.19
2023-04-13T01:49:46.640Z,98985.41
2023-04-13T01:54:53.418Z,98998.63
2023-04-13T01:59:58.955Z,98993.72
2023-04-13T02:05:02.108Z,98982.22
2023-04-13T02:10:06.551Z,98975.81
2023-04-13T02:15:12.702Z,98990.50
2023-04-13T02:20:16.372Z,98987.75
2023-04-13T02:25:19.837Z,98985.81
2023-04-13T02:30:24.950Z,98997.34
2023-04-13T02:35:28.522Z,98997.06
2023-04-13T02:40:31.896Z,98999.94
2023-04-13T02:45:36.786Z,98995.56
2023-04-13T02:50:40.175Z,98999.44
2023-04-13T02:55:43.386Z,98991.94
2023-04-13T03:00:48.690Z,98987.81
2023-04-13T03:05:52.676Z,98988.44
2023-04-13T03:10:55.816Z,98987.38
2023-04-13T03:16:02.163Z,98975.16
2023-04-13T03:21:07.013Z,98990.13
2023-04-13T03:26:14.128Z,98993.41
2023-04-13T03:31:18.966Z,99002.19
2023-04-13T03:36:22.112Z,98999.41
2023-04-13T03:41:26.685Z,98997.13
2023-04-13T03:46:33.320Z,99003.44
2023-04-13T03:51:37.499Z,99000.56
2023-04-13T03:56:41.386Z,98989.16
2023-04-13T04:01:46.270Z,98995.72
2023-04-13T04:06:49.956Z,98976.38
2023-04-13T04:11:54.243Z,98978.81
2023-04-13T04:16:58.906Z,98989.41
2023-04-13T04:22:04.078Z,98997.78
2023-04-13T04:27:08.039Z,99001.53
2023-04-13T04:32:13.311Z,99008.38
2023-04-13T04:37:20.665Z,99007.53
2023-04-13T04:42:25.564Z,99014.56
2023-04-13T04:47:30.825Z,99021.41
2023-04-13T04:52:34.893Z,99033.28
2023-04-13T04:57:47.994Z,99036.66
2023-04-13T05:02:52.874Z,99048.06
2023-04-13T05:07:56.438Z,99051.94
2023-04-13T05:13:02.388Z,99065.41
2023-04-13T05:18:07.531Z,99066.38
2023-04-13T05:23:11.573Z,99067.41
2023-04-13T05:28:15.068Z,99067.72
2023-04-13T05:33:24.953Z,99081.41
2023-04-13T05:38:39.484Z,99083.59
2023-04-13T05:43:44.623Z,99101.53
2023-04-13T05:48:55.571Z,99093.28
2023-04-13T05:53:59.440Z,99091.19
2023-04-13T05:59:05.906Z,99089.72
2023-04-13T06:04:12.078Z,99102.34
2023-04-13T06:09:15.847Z,99106.00
2023-04-13T06:14:20.834Z,99109.94
2023-04-13T06:19:28.261Z,99105.72
2023-04-13T06:24:32.579Z,99105.66
2023-04-13T06:29:37.842Z,99109.31
2023-04-13T06:34:42.611Z,99096.59
2023-04-13T06:39:46.236Z,99097.78
2023-04-13T06:44:49.615Z,99109.59
2023-04-13T06:49:55.098Z,99102.47
2023-04-13T06:54:59.142Z,99104.50
2023-04-13T07:00:02.410Z,99102.94
2023-04-13T07:05:08.436Z,99092.03
2023-04-13T07:10:12.140Z,99099.13
2023-04-13T07:15:16.081Z,99099.31
2023-04-13T07:20:22.348Z,99102.50
2023-04-13T07:25:25.525Z,99102.66
2023-04-13T07:30:28.810Z,99104.84
2023-04-13T07:35:34.245Z,99108.41
2023-04-13T07:40:41.167Z,99121.31
2023-04-13T07:45:44.731Z,99112.69
2023-04-13T07:50:49.285Z,99129.84
2023-04-13T07:55:54.049Z,99139.66
2023-04-13T08:00:57.502Z,99155.84
2023-04-13T08:06:02.752Z,99149.13
2023-04-13T08:11:06.279Z,99154.94
2023-04-13T08:16:11.876Z,99155.47
2023-04-13T08:21:17.039Z,99163.47
2023-04-13T08:26:23.126Z,99161.16
2023-04-13T08:31:27.118Z,99163.13
2023-04-13T08:36:32.066Z,99171.06
2023-04-13T08:41:39.819Z,99168.09
2023-04-13T08:46:47.645Z,99168.63
2023-04-13T08:51:53.287Z,99181.59
2023-04-13T08:56:57.897Z,99195.53
2023-04-13T09:02:04.951Z,99210.94
2023-04-13T09:07:17.408Z,99194.00
2023-04-13T09:12:20.823Z,99203.56
2023-04-13T09:17:27.820Z,99188.63
2023-04-13T09:22:33.424Z,99194.47
2023-04-13T09:27:37.241Z,99198.78
2023-04-13T09:32:40.565Z,99208.44
2023-04-13T09:37:48.029Z,99200.28
2023-04-13T09:42:59.266Z,99197.97
2023-04-13T09:48:03.607Z,99187.47
2023-04-13T09:53:10.832Z,99195.41
2023-04-13T09:58:16.870Z,99192.88
2023-04-13T10:03:22.533Z,99187.41
2023-04-13T10:08:38.032Z,99202.22
2023-04-13T10:13:49.533Z,99206.16
2023-04-13T10:19:00.909Z,99226.50
2023-04-13T10:29:16.965Z,99231.28
2023-04-13T10:34:26.503Z,99239.34
2023-04-13T10:39:34.065Z,99239.38
2023-04-13T10:44:47.620Z,99249.09
2023-04-13T10:49:52.320Z,99250.59
2023-04-13T10:54:58.891Z,99257.69
2023-04-13T11:00:02.076Z,99263.59
2023-04-13T11:05:06.251Z,99266.00
2023-04-13T11:10:13.079Z,99265.38
2023-04-13T11:15:21.084Z,99266.72
2023-04-13T11:20:34.778Z,99272.91
2023-04-13T11:25:39.587Z,99263.31
2023-04-13T11:30:43.499Z,99254.38
2023-04-13T11:35:50.096Z,99264.84
2023-04-13T11:41:12.577Z,99274.63
2023-04-13T11:46:25.441Z,99282.03
2023-04-13T11:51:29.492Z,99271.97
2023-04-13T11:56:34.288Z,99276.81
2023-04-13T12:01:44.835Z,99267.81
2023-04-13T12:06:53.193Z,99270.44
2023-04-13T12:12:29.829Z,99271.72
2023-04-13T12:22:50.953Z,99266.44
2023-04-13T12:27:57.266Z,99263.16
2023-04-13T12:33:01.157Z,99268.91
2023-04-13T12:38:05.322Z,99280.22
2023-04-13T12:43:10.078Z,99273.59
2023-04-13T12:48:13.609Z,99270.69
2023-04-13T12:53:17.117Z,99272.91
2023-04-13T12:58:21.834Z,99279.19
2023-04-13T13:03:25.221Z,99280.97
2023-04-13T13:08:28.573Z,99286.44
2023-04-13T13:13:33.246Z,99277.09
2023-04-13T13:18:49.634Z,99290.69
2023-04-13T13:23:53.939Z,99286.78
2023-04-13T13:29:00.019Z,99294.00
2023-04-13T13:34:04.847Z,99290.16
2023-04-13T13:39:08.119Z,99285.00
2023-04-13T13:44:13.110Z,99287.25
2023-04-13T13:49:16.686Z,99289.13
2023-04-13T13:54:21.062Z,99285.50
2023-04-13T13:59:26.049Z,99282.13
2023-04-13T14:04:29.713Z,99286.16
2023-04-13T14:09:33.992Z,99298.38
2023-04-13T14:14:38.879Z,99285.63
2023-04-13T14:19:42.500Z,99285.41
2023-04-13T14:24:46.558Z,99295.00
2023-04-13T14:29:52.345Z,99296.81
2023-04-13T14:34:56.772Z,99311.31
2023-04-13T14:40:00.290Z,99303.00
2023-04-13T14:45:06.826Z,99300.53
2023-04-13T14:50:11.812Z,99311.94
2023-04-13T14:55:16.855Z,99317.84
2023-04-13T15:00:26.633Z,99321.56
2023-04-13T15:05:31.515Z,99320.47
2023-04-13T15:10:36.095Z,99329.59
2023-04-13T15:15:41.654Z,99339.56
2023-04-13T15:20:45.130Z,99343.41
2023-04-13T15:25:48.464Z,99345.28
2023-04-13T15:30:53.323Z,99352.19
2023-04-13T15:36:07.828Z,99352.03
2023-04-13T15:41:11.729Z,99356.03
2023-04-13T15:46:16.757Z,99368.78
2023-04-13T15:51:20.410Z,99361.78
2023-04-13T15:56:26.530Z,99366.56
2023-04-13T16:01:58.424Z,99366.66
2023-04-13T16:07:12.950Z,99366.34
2023-04-13T16:12:17.785Z,99364.91
2023-04-13T16:17:31.136Z,99364.81
2023-04-13T16:22:36.467Z,99371.31
2023-04-13T16:27:41.774Z,99368.22
2023-04-13T16:32:47.315Z,99369.38
2023-04-13T16:37:50.471Z,99362.72
2023-04-13T16:42:53.881Z,99368.81
2023-04-13T16:47:58.774Z,99364.44
2023-04-13T16:53:02.048Z,99364.94
2023-04-13T16:58:07.431Z,99367.09
2023-04-13T17:03:15.053Z,99363.41
2023-04-13T17:08:18.484Z,99357.22
2023-04-13T17:13:22.369Z,99360.25
2023-04-13T17:18:30.285Z,99352.91
2023-04-13T17:23:33.915Z,99351.63
2023-04-13T17:28:37.143Z,99348.41
2023-04-13T17:33:42.021Z,99362.72
2023-04-13T17:38:46.448Z,99378.38
2023-04-13T17:43:49.684Z,99392.03
2023-04-13T17:48:54.515Z,99401.75
2023-04-13T17:53:57.861Z,99424.91
2023-04-13T17:59:01.795Z,99439.97
2023-04-13T18:04:06.986Z,99443.75
2023-04-13T18:09:12.954Z,99457.03
2023-04-13T18:14:16.556Z,99479.50
2023-04-13T18:19:21.398Z,99487.00
2023-04-13T18:24:24.922Z,99490.25
2023-04-13T18:29:28.214Z,99504.34
2023-04-13T18:34:34.424Z,99514.19
2023-04-13T18:39:39.643Z,99522.38
2023-04-13T18:44:42.784Z,99531.72
2023-04-13T18:49:47.622Z,99533.16
2023-04-13T18:54:51.555Z,99548.03
2023-04-13T18:59:56.970Z,99540.47
2023-04-13T19:05:01.786Z,99544.03
2023-04-13T19:10:05.876Z,99542.19
2023-04-13T19:15:09.780Z,99541.31
2023-04-13T19:20:14.536Z,99549.69
2023-04-13T19:25:18.257Z,99543.41
2023-04-13T19:30:21.959Z,99545.34
2023-04-13T19:35:27.326Z,99547.63
2023-04-13T19:40:30.728Z,99543.38
2023-04-13T19:45:34.126Z,99530.72
2023-04-13T19:50:38.950Z,99536.41
2023-04-13T19:55:42.324Z,99533.25
2023-04-13T20:00:47.381Z,99539.56
2023-04-13T20:05:52.720Z,99530.97
2023-04-13T20:10:57.908Z,99542.06
2023-04-13T20:16:02.583Z,99532.16
2023-04-13T20:21:08.229Z,99525.88
2023-04-13T20:26:12.232Z,99526.31
2023-04-13T20:31:15.871Z,99533.00
2023-04-13T20:36:21.721Z,99533.44
2023-04-13T20:41:25.055Z,99538.31
2023-04-13T20:46:34.687Z,99538.91
2023-04-13T20:51:39.881Z,99532.47
2023-04-13T20:56:44.081Z,99534.84
2023-04-13T21:01:49.019Z,99532.03
2023-04-13T21:06:55.534Z,99528.34
2023-04-13T21:11:59.344Z,99533.34
2023-04-13T21:17:02.870Z,99533.28
2023-04-13T21:22:07.740Z,99528.63
2023-04-13T21:27:11.105Z,99523.69
2023-04-13T21:32:14.774Z,99522.47
2023-04-13T21:37:19.689Z,99534.19
2023-04-13T21:42:23.043Z,99531.75
2023-04-13T21:47:26.599Z,99538.22
2023-04-13T21:52:31.705Z,99539.34
2023-04-13T21:57:34.910Z,99538.00
2023-04-13T22:02:38.235Z,99533.03
2023-04-13T22:07:43.597Z,99541.84
2023-04-13T22:12:47.657Z,99531.56
2023-04-13T22:17:51.161Z,99531.84
2023-04-13T22:22:55.889Z,99514.66
2023-04-13T22:27:59.171Z,99496.69
2023-04-13T22:33:03.669Z,99484.72
2023-04-13T22:38:08.498Z,99475.53
2023-04-13T22:43:12.011Z,99475.00
2023-04-13T22:48:15.519Z,99473.66
2023-04-13T22:53:20.537Z,99481.22
2023-04-13T22:58:23.844Z,99515.47
2023-04-13T23:03:27.685Z,99530.59
2023-04-13T23:08:32.656Z,99533.63
2023-04-13T23:13:36.803Z,99537.63
2023-04-13T23:18:40.096Z,99552.16
2023-04-13T23:23:44.976Z,99560.56
2023-04-13T23:28:48.496Z,99560.28
2023-04-13T23:33:53.473Z,99564.41
2023-04-13T23:38:59.796Z,99553.28
2023-04-13T23:44:03.294Z,99546.41
2023-04-13T23:49:06.763Z,99557.13
2023-04-13T23:54:12.199Z,99545.88
2023-04-13T23:59:15.672Z,99558.94
